sensor_id;sensor_type;location;lat;lon;timestamp;temperature;humidity
1175;DHT22;576;48.418;10.074;2023-08-21T00:01:18;30.90;66.90
1175;DHT22;576;48.418;10.074;2023-08-21T00:03:47;30.90;66.90
1175;DHT22;576;48.418;10.074;2023-08-21T00:06:15;30.90;66.90
1175;DHT22;576;48.418;10.074;2023-08-21T00:08:43;30.90;66.90
1175;DHT22;576;48.418;10.074;2023-08-21T00:11:11;30.90;66.90
1175;DHT22;576;48.418;10.074;2023-08-21T00:13:40;30.90;66.90
1175;DHT22;576;48.418;10.074;2023-08-21T00:16:12;30.90;66.90
1175;DHT22;576;48.418;10.074;2023-08-21T00:18:41;30.80;66.90
1175;DHT22;576;48.418;10.074;2023-08-21T00:21:09;30.90;66.90
1175;DHT22;576;48.418;10.074;2023-08-21T00:23:37;30.90;66.90
1175;DHT22;576;48.418;10.074;2023-08-21T00:26:06;30.80;66.90
1175;DHT22;576;48.418;10.074;2023-08-21T00:28:34;30.80;67.00
1175;DHT22;576;48.418;10.074;2023-08-21T00:31:02;30.80;67.00
1175;DHT22;576;48.418;10.074;2023-08-21T00:33:33;30.80;67.00
1175;DHT22;576;48.418;10.074;2023-08-21T00:36:01;30.80;67.00
1175;DHT22;576;48.418;10.074;2023-08-21T00:38:30;30.80;67.00
1175;DHT22;576;48.418;10.074;2023-08-21T00:40:58;30.80;67.10
1175;DHT22;576;48.418;10.074;2023-08-21T00:43:27;30.80;67.10
1175;DHT22;576;48.418;10.074;2023-08-21T00:45:57;30.80;67.20
1175;DHT22;576;48.418;10.074;2023-08-21T00:48:25;30.80;67.20
1175;DHT22;576;48.418;10.074;2023-08-21T00:50:55;30.80;67.30
1175;DHT22;576;48.418;10.074;2023-08-21T00:53:24;30.70;67.30
1175;DHT22;576;48.418;10.074;2023-08-21T00:55:52;30.70;67.30
1175;DHT22;576;48.418;10.074;2023-08-21T00:58:20;30.70;67.50
1175;DHT22;576;48.418;10.074;2023-08-21T01:00:49;30.70;67.50
1175;DHT22;576;48.418;10.074;2023-08-21T01:03:19;30.70;67.50
1175;DHT22;576;48.418;10.074;2023-08-21T01:05:47;30.70;67.60
1175;DHT22;576;48.418;10.074;2023-08-21T01:08:21;30.70;67.60
1175;DHT22;576;48.418;10.074;2023-08-21T01:10:54;30.70;67.60
1175;DHT22;576;48.418;10.074;2023-08-21T01:13:34;30.70;67.60
1175;DHT22;576;48.418;10.074;2023-08-21T01:16:03;30.60;67.70
1175;DHT22;576;48.418;10.074;2023-08-21T01:18:34;30.60;67.70
1175;DHT22;576;48.418;10.074;2023-08-21T01:21:03;30.60;67.70
1175;DHT22;576;48.418;10.074;2023-08-21T01:23:35;30.60;67.80
1175;DHT22;576;48.418;10.074;2023-08-21T01:26:04;30.60;67.80
1175;DHT22;576;48.418;10.074;2023-08-21T01:28:33;30.60;67.90
1175;DHT22;576;48.418;10.074;2023-08-21T01:31:07;30.60;67.90
1175;DHT22;576;48.418;10.074;2023-08-21T01:33:40;30.60;67.90
1175;DHT22;576;48.418;10.074;2023-08-21T01:36:11;30.60;67.90
1175;DHT22;576;48.418;10.074;2023-08-21T01:38:41;30.60;67.90
1175;DHT22;576;48.418;10.074;2023-08-21T01:41:11;30.50;68.00
1175;DHT22;576;48.418;10.074;2023-08-21T01:43:39;30.50;68.00
1175;DHT22;576;48.418;10.074;2023-08-21T01:46:08;30.50;68.00
1175;DHT22;576;48.418;10.074;2023-08-21T01:48:36;30.50;68.00
1175;DHT22;576;48.418;10.074;2023-08-21T01:51:05;30.50;68.00
1175;DHT22;576;48.418;10.074;2023-08-21T01:53:33;30.50;68.00
1175;DHT22;576;48.418;10.074;2023-08-21T01:56:02;30.50;68.10
1175;DHT22;576;48.418;10.074;2023-08-21T01:58:32;30.50;68.00
1175;DHT22;576;48.418;10.074;2023-08-21T02:01:00;30.50;68.00
1175;DHT22;576;48.418;10.074;2023-08-21T02:03:29;30.50;68.00
1175;DHT22;576;48.418;10.074;2023-08-21T02:05:58;30.50;68.00
1175;DHT22;576;48.418;10.074;2023-08-21T02:08:30;30.50;68.00
1175;DHT22;576;48.418;10.074;2023-08-21T02:10:58;30.50;68.00
1175;DHT22;576;48.418;10.074;2023-08-21T02:13:28;30.50;68.00
1175;DHT22;576;48.418;10.074;2023-08-21T02:15:56;30.50;67.90
1175;DHT22;576;48.418;10.074;2023-08-21T02:18:24;30.50;67.90
1175;DHT22;576;48.418;10.074;2023-08-21T02:20:52;30.50;67.80
1175;DHT22;576;48.418;10.074;2023-08-21T02:23:21;30.50;67.80
1175;DHT22;576;48.418;10.074;2023-08-21T02:25:51;30.50;67.80
1175;DHT22;576;48.418;10.074;2023-08-21T02:28:19;30.50;67.80
1175;DHT22;576;48.418;10.074;2023-08-21T02:30:49;30.50;67.80
1175;DHT22;576;48.418;10.074;2023-08-21T02:33:17;30.50;67.80
1175;DHT22;576;48.418;10.074;2023-08-21T02:35:45;30.50;67.80
1175;DHT22;576;48.418;10.074;2023-08-21T02:38:13;30.50;67.80
1175;DHT22;576;48.418;10.074;2023-08-21T02:40:41;30.50;67.90
1175;DHT22;576;48.418;10.074;2023-08-21T02:43:10;30.50;67.90
1175;DHT22;576;48.418;10.074;2023-08-21T02:45:38;30.50;67.80
1175;DHT22;576;48.418;10.074;2023-08-21T02:48:07;30.50;67.90
1175;DHT22;576;48.418;10.074;2023-08-21T02:50:35;30.50;67.90
1175;DHT22;576;48.418;10.074;2023-08-21T02:53:04;30.50;67.80
1175;DHT22;576;48.418;10.074;2023-08-21T02:55:32;30.50;67.80
1175;DHT22;576;48.418;10.074;2023-08-21T02:58:00;30.50;67.80
1175;DHT22;576;48.418;10.074;2023-08-21T03:00:28;30.50;67.70
1175;DHT22;576;48.418;10.074;2023-08-21T03:02:56;30.50;67.70
1175;DHT22;576;48.418;10.074;2023-08-21T03:05:26;30.60;67.60
1175;DHT22;576;48.418;10.074;2023-08-21T03:07:54;30.60;67.50
1175;DHT22;576;48.418;10.074;2023-08-21T03:10:23;30.60;67.40
1175;DHT22;576;48.418;10.074;2023-08-21T03:12:51;30.60;67.40
1175;DHT22;576;48.418;10.074;2023-08-21T03:15:20;30.60;67.30
1175;DHT22;576;48.418;10.074;2023-08-21T03:17:48;30.60;67.30
1175;DHT22;576;48.418;10.074;2023-08-21T03:20:16;30.60;67.30
1175;DHT22;576;48.418;10.074;2023-08-21T03:22:47;30.60;67.20
1175;DHT22;576;48.418;10.074;2023-08-21T03:25:17;30.60;67.20
1175;DHT22;576;48.418;10.074;2023-08-21T03:27:45;30.60;67.20
1175;DHT22;576;48.418;10.074;2023-08-21T03:30:16;30.70;67.20
1175;DHT22;576;48.418;10.074;2023-08-21T03:32:45;30.70;67.20
1175;DHT22;576;48.418;10.074;2023-08-21T03:35:14;30.60;67.20
1175;DHT22;576;48.418;10.074;2023-08-21T03:37:42;30.60;67.20
1175;DHT22;576;48.418;10.074;2023-08-21T03:40:14;30.60;67.20
1175;DHT22;576;48.418;10.074;2023-08-21T03:42:42;30.60;67.30
1175;DHT22;576;48.418;10.074;2023-08-21T03:45:11;30.60;67.30
1175;DHT22;576;48.418;10.074;2023-08-21T03:47:39;30.60;67.30
1175;DHT22;576;48.418;10.074;2023-08-21T03:50:15;30.60;67.30
1175;DHT22;576;48.418;10.074;2023-08-21T03:52:43;30.60;67.30
1175;DHT22;576;48.418;10.074;2023-08-21T03:55:11;30.60;67.30
1175;DHT22;576;48.418;10.074;2023-08-21T03:57:43;30.60;67.30
1175;DHT22;576;48.418;10.074;2023-08-21T04:00:12;30.60;67.30
1175;DHT22;576;48.418;10.074;2023-08-21T04:02:43;30.60;67.30
1175;DHT22;576;48.418;10.074;2023-08-21T04:05:11;30.60;67.30
1175;DHT22;576;48.418;10.074;2023-08-21T04:07:39;30.60;67.30
1175;DHT22;576;48.418;10.074;2023-08-21T04:10:08;30.60;67.30
1175;DHT22;576;48.418;10.074;2023-08-21T04:12:36;30.60;67.30
1175;DHT22;576;48.418;10.074;2023-08-21T04:15:07;30.50;67.40
1175;DHT22;576;48.418;10.074;2023-08-21T04:17:36;30.50;67.40
1175;DHT22;576;48.418;10.074;2023-08-21T04:20:05;30.50;67.40
1175;DHT22;576;48.418;10.074;2023-08-21T04:22:33;30.50;67.40
1175;DHT22;576;48.418;10.074;2023-08-21T04:25:03;30.50;67.40
1175;DHT22;576;48.418;10.074;2023-08-21T04:27:31;30.50;67.40
1175;DHT22;576;48.418;10.074;2023-08-21T04:30:00;30.50;67.40
1175;DHT22;576;48.418;10.074;2023-08-21T04:32:29;30.50;67.40
1175;DHT22;576;48.418;10.074;2023-08-21T04:34:58;30.50;67.40
1175;DHT22;576;48.418;10.074;2023-08-21T04:37:26;30.50;67.40
1175;DHT22;576;48.418;10.074;2023-08-21T04:39:55;30.50;67.40
1175;DHT22;576;48.418;10.074;2023-08-21T04:42:23;30.50;67.40
1175;DHT22;576;48.418;10.074;2023-08-21T04:44:51;30.50;67.40
1175;DHT22;576;48.418;10.074;2023-08-21T04:47:21;30.50;67.40
1175;DHT22;576;48.418;10.074;2023-08-21T04:49:55;30.50;67.40
1175;DHT22;576;48.418;10.074;2023-08-21T04:52:24;30.50;67.50
1175;DHT22;576;48.418;10.074;2023-08-21T04:54:54;30.50;67.50
1175;DHT22;576;48.418;10.074;2023-08-21T04:57:22;30.50;67.50
1175;DHT22;576;48.418;10.074;2023-08-21T04:59:50;30.50;67.50
1175;DHT22;576;48.418;10.074;2023-08-21T05:02:21;30.50;67.50
1175;DHT22;576;48.418;10.074;2023-08-21T05:04:51;30.50;67.50
1175;DHT22;576;48.418;10.074;2023-08-21T05:07:20;30.40;67.50
1175;DHT22;576;48.418;10.074;2023-08-21T05:09:48;30.50;67.50
1175;DHT22;576;48.418;10.074;2023-08-21T05:12:20;30.40;67.50
1175;DHT22;576;48.418;10.074;2023-08-21T05:14:48;30.40;67.50
1175;DHT22;576;48.418;10.074;2023-08-21T05:17:16;30.40;67.50
1175;DHT22;576;48.418;10.074;2023-08-21T05:19:44;30.40;67.50
1175;DHT22;576;48.418;10.074;2023-08-21T05:22:13;30.40;67.50
1175;DHT22;576;48.418;10.074;2023-08-21T05:24:43;30.40;67.60
1175;DHT22;576;48.418;10.074;2023-08-21T05:27:11;30.40;67.50
1175;DHT22;576;48.418;10.074;2023-08-21T05:29:39;30.40;67.50
1175;DHT22;576;48.418;10.074;2023-08-21T05:32:07;30.40;67.60
1175;DHT22;576;48.418;10.074;2023-08-21T05:34:35;30.40;67.50
1175;DHT22;576;48.418;10.074;2023-08-21T05:37:04;30.40;67.50
1175;DHT22;576;48.418;10.074;2023-08-21T05:39:32;30.40;67.60
1175;DHT22;576;48.418;10.074;2023-08-21T05:42:02;30.40;67.60
1175;DHT22;576;48.418;10.074;2023-08-21T05:44:31;30.40;67.60
1175;DHT22;576;48.418;10.074;2023-08-21T05:46:59;30.40;67.60
1175;DHT22;576;48.418;10.074;2023-08-21T05:49:27;30.40;67.60
1175;DHT22;576;48.418;10.074;2023-08-21T05:51:56;30.40;67.60
1175;DHT22;576;48.418;10.074;2023-08-21T05:54:26;30.40;67.60
1175;DHT22;576;48.418;10.074;2023-08-21T05:56:55;30.40;67.60
1175;DHT22;576;48.418;10.074;2023-08-21T05:59:29;30.40;67.50
1175;DHT22;576;48.418;10.074;2023-08-21T06:02:00;30.40;67.60
1175;DHT22;576;48.418;10.074;2023-08-21T06:04:28;30.40;67.50
1175;DHT22;576;48.418;10.074;2023-08-21T06:06:59;30.50;67.50
1175;DHT22;576;48.418;10.074;2023-08-21T06:09:29;30.40;67.50
1175;DHT22;576;48.418;10.074;2023-08-21T06:11:58;30.40;67.50
1175;DHT22;576;48.418;10.074;2023-08-21T06:14:29;30.40;67.50
1175;DHT22;576;48.418;10.074;2023-08-21T06:17:01;30.40;67.50
1175;DHT22;576;48.418;10.074;2023-08-21T06:19:30;30.40;67.50
1175;DHT22;576;48.418;10.074;2023-08-21T06:21:58;30.50;67.60
1175;DHT22;576;48.418;10.074;2023-08-21T06:24:26;30.50;67.50
1175;DHT22;576;48.418;10.074;2023-08-21T06:27:00;30.50;67.50
1175;DHT22;576;48.418;10.074;2023-08-21T06:29:30;30.50;67.50
1175;DHT22;576;48.418;10.074;2023-08-21T06:31:58;30.50;67.60
1175;DHT22;576;48.418;10.074;2023-08-21T06:34:26;30.50;67.60
1175;DHT22;576;48.418;10.074;2023-08-21T06:36:55;30.50;67.60
1175;DHT22;576;48.418;10.074;2023-08-21T06:39:23;30.50;67.50
1175;DHT22;576;48.418;10.074;2023-08-21T06:41:52;30.50;67.50
1175;DHT22;576;48.418;10.074;2023-08-21T06:44:20;30.50;67.50
1175;DHT22;576;48.418;10.074;2023-08-21T06:46:50;30.50;67.60
1175;DHT22;576;48.418;10.074;2023-08-21T06:49:19;30.50;67.60
1175;DHT22;576;48.418;10.074;2023-08-21T06:51:47;30.50;67.60
1175;DHT22;576;48.418;10.074;2023-08-21T06:54:15;30.50;67.60
1175;DHT22;576;48.418;10.074;2023-08-21T06:56:44;30.60;67.70
1175;DHT22;576;48.418;10.074;2023-08-21T06:59:13;30.60;67.70
1175;DHT22;576;48.418;10.074;2023-08-21T07:01:42;30.50;67.70
1175;DHT22;576;48.418;10.074;2023-08-21T07:04:11;30.50;67.80
1175;DHT22;576;48.418;10.074;2023-08-21T07:06:40;30.60;67.80
1175;DHT22;576;48.418;10.074;2023-08-21T07:09:09;30.60;67.90
1175;DHT22;576;48.418;10.074;2023-08-21T07:11:37;30.50;67.90
1175;DHT22;576;48.418;10.074;2023-08-21T07:14:05;30.50;67.80
1175;DHT22;576;48.418;10.074;2023-08-21T07:16:33;30.50;67.90
1175;DHT22;576;48.418;10.074;2023-08-21T07:19:01;30.50;67.90
1175;DHT22;576;48.418;10.074;2023-08-21T07:21:31;30.40;68.00
1175;DHT22;576;48.418;10.074;2023-08-21T07:24:02;30.40;68.00
1175;DHT22;576;48.418;10.074;2023-08-21T07:26:30;30.40;67.90
1175;DHT22;576;48.418;10.074;2023-08-21T07:28:59;30.40;67.90
1175;DHT22;576;48.418;10.074;2023-08-21T07:31:27;30.40;68.00
1175;DHT22;576;48.418;10.074;2023-08-21T07:33:55;30.40;67.90
1175;DHT22;576;48.418;10.074;2023-08-21T07:36:23;30.40;67.90
1175;DHT22;576;48.418;10.074;2023-08-21T07:38:53;30.40;67.90
1175;DHT22;576;48.418;10.074;2023-08-21T07:41:21;30.40;67.90
1175;DHT22;576;48.418;10.074;2023-08-21T07:43:52;30.40;67.90
1175;DHT22;576;48.418;10.074;2023-08-21T07:46:21;30.40;67.90
1175;DHT22;576;48.418;10.074;2023-08-21T07:48:49;30.40;67.90
1175;DHT22;576;48.418;10.074;2023-08-21T07:51:18;30.40;67.90
1175;DHT22;576;48.418;10.074;2023-08-21T07:53:46;30.40;67.90
1175;DHT22;576;48.418;10.074;2023-08-21T07:56:15;30.40;67.90
1175;DHT22;576;48.418;10.074;2023-08-21T07:58:43;30.40;67.90
1175;DHT22;576;48.418;10.074;2023-08-21T08:01:12;30.40;67.90
1175;DHT22;576;48.418;10.074;2023-08-21T08:03:40;30.40;67.90
1175;DHT22;576;48.418;10.074;2023-08-21T08:06:08;30.40;67.90
1175;DHT22;576;48.418;10.074;2023-08-21T08:08:36;30.40;67.90
1175;DHT22;576;48.418;10.074;2023-08-21T08:11:05;30.40;67.90
1175;DHT22;576;48.418;10.074;2023-08-21T08:13:35;30.40;67.90
1175;DHT22;576;48.418;10.074;2023-08-21T08:16:03;30.40;68.00
1175;DHT22;576;48.418;10.074;2023-08-21T08:18:31;30.40;68.00
1175;DHT22;576;48.418;10.074;2023-08-21T08:20:59;30.40;68.00
1175;DHT22;576;48.418;10.074;2023-08-21T08:23:28;30.40;68.00
1175;DHT22;576;48.418;10.074;2023-08-21T08:25:56;30.40;68.00
1175;DHT22;576;48.418;10.074;2023-08-21T08:28:24;30.40;68.00
1175;DHT22;576;48.418;10.074;2023-08-21T08:30:53;30.40;68.00
1175;DHT22;576;48.418;10.074;2023-08-21T08:33:22;30.40;68.10
1175;DHT22;576;48.418;10.074;2023-08-21T08:35:50;30.30;68.10
1175;DHT22;576;48.418;10.074;2023-08-21T08:38:18;30.30;68.10
1175;DHT22;576;48.418;10.074;2023-08-21T08:40:47;30.30;68.10
1175;DHT22;576;48.418;10.074;2023-08-21T08:43:18;30.40;68.10
1175;DHT22;576;48.418;10.074;2023-08-21T08:45:47;30.40;68.10
1175;DHT22;576;48.418;10.074;2023-08-21T08:48:19;30.40;68.10
1175;DHT22;576;48.418;10.074;2023-08-21T08:50:48;30.40;68.10
1175;DHT22;576;48.418;10.074;2023-08-21T08:53:19;30.40;68.10
1175;DHT22;576;48.418;10.074;2023-08-21T08:55:48;30.30;68.10
1175;DHT22;576;48.418;10.074;2023-08-21T08:58:17;30.30;68.10
1175;DHT22;576;48.418;10.074;2023-08-21T09:00:45;30.30;68.10
1175;DHT22;576;48.418;10.074;2023-08-21T09:03:13;30.40;68.10
1175;DHT22;576;48.418;10.074;2023-08-21T09:05:44;30.40;68.10
1175;DHT22;576;48.418;10.074;2023-08-21T09:08:12;30.40;68.20
1175;DHT22;576;48.418;10.074;2023-08-21T09:10:42;30.40;68.10
1175;DHT22;576;48.418;10.074;2023-08-21T09:13:13;30.40;68.10
1175;DHT22;576;48.418;10.074;2023-08-21T09:15:43;30.40;68.10
1175;DHT22;576;48.418;10.074;2023-08-21T09:18:11;30.40;68.20
1175;DHT22;576;48.418;10.074;2023-08-21T09:20:39;30.40;68.20
1175;DHT22;576;48.418;10.074;2023-08-21T09:23:13;30.40;68.20
1175;DHT22;576;48.418;10.074;2023-08-21T09:25:44;30.40;68.20
1175;DHT22;576;48.418;10.074;2023-08-21T09:28:14;30.40;68.20
1175;DHT22;576;48.418;10.074;2023-08-21T09:30:47;30.40;68.20
1175;DHT22;576;48.418;10.074;2023-08-21T09:33:19;30.40;68.20
1175;DHT22;576;48.418;10.074;2023-08-21T09:35:48;30.40;68.20
1175;DHT22;576;48.418;10.074;2023-08-21T09:38:18;30.40;68.20
1175;DHT22;576;48.418;10.074;2023-08-21T09:40:50;30.40;68.20
1175;DHT22;576;48.418;10.074;2023-08-21T09:43:20;30.40;68.20
1175;DHT22;576;48.418;10.074;2023-08-21T09:45:49;30.40;68.20
1175;DHT22;576;48.418;10.074;2023-08-21T09:48:20;30.40;68.20
1175;DHT22;576;48.418;10.074;2023-08-21T09:50:50;30.40;68.20
1175;DHT22;576;48.418;10.074;2023-08-21T09:53:21;30.40;68.20
1175;DHT22;576;48.418;10.074;2023-08-21T09:55:53;30.40;68.20
1175;DHT22;576;48.418;10.074;2023-08-21T09:58:22;30.40;68.20
1175;DHT22;576;48.418;10.074;2023-08-21T10:00:52;30.40;68.20
1175;DHT22;576;48.418;10.074;2023-08-21T10:03:25;30.40;68.20
1175;DHT22;576;48.418;10.074;2023-08-21T10:05:56;30.40;68.20
1175;DHT22;576;48.418;10.074;2023-08-21T10:08:27;30.40;68.20
1175;DHT22;576;48.418;10.074;2023-08-21T10:10:56;30.40;68.20
1175;DHT22;576;48.418;10.074;2023-08-21T10:13:26;30.40;68.20
1175;DHT22;576;48.418;10.074;2023-08-21T10:15:54;30.40;68.20
1175;DHT22;576;48.418;10.074;2023-08-21T10:18:25;30.40;68.20
1175;DHT22;576;48.418;10.074;2023-08-21T10:21:10;30.40;68.20
1175;DHT22;576;48.418;10.074;2023-08-21T10:23:40;30.40;68.20
1175;DHT22;576;48.418;10.074;2023-08-21T10:26:12;30.40;68.20
1175;DHT22;576;48.418;10.074;2023-08-21T10:28:48;30.40;68.30
1175;DHT22;576;48.418;10.074;2023-08-21T10:31:30;30.40;68.20
1175;DHT22;576;48.418;10.074;2023-08-21T10:33:59;30.40;68.20
1175;DHT22;576;48.418;10.074;2023-08-21T10:37:04;30.40;68.30
1175;DHT22;576;48.418;10.074;2023-08-21T10:39:36;30.40;68.30
1175;DHT22;576;48.418;10.074;2023-08-21T10:42:08;30.40;68.30
1175;DHT22;576;48.418;10.074;2023-08-21T10:44:47;30.40;68.30
1175;DHT22;576;48.418;10.074;2023-08-21T10:47:20;30.40;68.30
1175;DHT22;576;48.418;10.074;2023-08-21T10:49:52;30.40;68.30
1175;DHT22;576;48.418;10.074;2023-08-21T10:52:22;30.40;68.40
1175;DHT22;576;48.418;10.074;2023-08-21T10:54:53;30.30;68.40
1175;DHT22;576;48.418;10.074;2023-08-21T10:57:22;30.30;68.40
1175;DHT22;576;48.418;10.074;2023-08-21T10:59:52;30.30;68.50
1175;DHT22;576;48.418;10.074;2023-08-21T11:02:21;30.30;68.50
1175;DHT22;576;48.418;10.074;2023-08-21T11:04:50;30.30;68.50
1175;DHT22;576;48.418;10.074;2023-08-21T11:07:18;30.30;68.50
1175;DHT22;576;48.418;10.074;2023-08-21T11:09:48;30.30;68.60
1175;DHT22;576;48.418;10.074;2023-08-21T11:12:19;30.30;68.60
1175;DHT22;576;48.418;10.074;2023-08-21T11:14:48;30.30;68.70
1175;DHT22;576;48.418;10.074;2023-08-21T11:17:17;30.30;68.70
1175;DHT22;576;48.418;10.074;2023-08-21T11:19:45;30.30;68.70
1175;DHT22;576;48.418;10.074;2023-08-21T11:22:16;30.30;68.70
1175;DHT22;576;48.418;10.074;2023-08-21T11:24:45;30.30;68.70
1175;DHT22;576;48.418;10.074;2023-08-21T11:27:16;30.30;68.70
1175;DHT22;576;48.418;10.074;2023-08-21T11:29:46;30.40;68.50
1175;DHT22;576;48.418;10.074;2023-08-21T11:32:16;30.50;68.30
1175;DHT22;576;48.418;10.074;2023-08-21T11:34:48;30.60;68.10
1175;DHT22;576;48.418;10.074;2023-08-21T11:37:18;30.70;67.90
1175;DHT22;576;48.418;10.074;2023-08-21T11:39:48;30.90;67.50
1175;DHT22;576;48.418;10.074;2023-08-21T11:42:16;31.00;67.10
1175;DHT22;576;48.418;10.074;2023-08-21T11:44:47;31.20;66.70
1175;DHT22;576;48.418;10.074;2023-08-21T11:47:17;31.40;66.30
1175;DHT22;576;48.418;10.074;2023-08-21T11:49:47;31.60;65.90
1175;DHT22;576;48.418;10.074;2023-08-21T11:52:19;31.70;65.60
1175;DHT22;576;48.418;10.074;2023-08-21T11:54:49;31.80;65.40
1175;DHT22;576;48.418;10.074;2023-08-21T11:57:18;31.80;65.30
1175;DHT22;576;48.418;10.074;2023-08-21T11:59:51;31.90;65.10
1175;DHT22;576;48.418;10.074;2023-08-21T12:02:23;32.00;65.00
1175;DHT22;576;48.418;10.074;2023-08-21T12:04:52;32.00;64.90
1175;DHT22;576;48.418;10.074;2023-08-21T12:07:21;32.00;64.70
1175;DHT22;576;48.418;10.074;2023-08-21T12:09:49;32.10;64.70
1175;DHT22;576;48.418;10.074;2023-08-21T12:12:17;32.10;64.70
1175;DHT22;576;48.418;10.074;2023-08-21T12:14:46;32.10;64.60
1175;DHT22;576;48.418;10.074;2023-08-21T12:17:15;32.10;64.60
1175;DHT22;576;48.418;10.074;2023-08-21T12:19:44;32.20;64.50
1175;DHT22;576;48.418;10.074;2023-08-21T12:22:12;32.20;64.40
1175;DHT22;576;48.418;10.074;2023-08-21T12:24:40;32.20;64.30
1175;DHT22;576;48.418;10.074;2023-08-21T12:27:08;32.30;64.30
1175;DHT22;576;48.418;10.074;2023-08-21T12:29:36;32.30;64.20
1175;DHT22;576;48.418;10.074;2023-08-21T12:32:05;32.30;64.20
1175;DHT22;576;48.418;10.074;2023-08-21T12:34:35;32.30;64.20
1175;DHT22;576;48.418;10.074;2023-08-21T12:37:03;32.30;64.20
1175;DHT22;576;48.418;10.074;2023-08-21T12:39:31;32.20;64.10
1175;DHT22;576;48.418;10.074;2023-08-21T12:42:00;32.10;64.40
1175;DHT22;576;48.418;10.074;2023-08-21T12:44:28;32.00;64.80
1175;DHT22;576;48.418;10.074;2023-08-21T12:46:56;31.80;65.10
1175;DHT22;576;48.418;10.074;2023-08-21T12:49:24;31.80;65.30
1175;DHT22;576;48.418;10.074;2023-08-21T12:51:54;31.80;65.30
1175;DHT22;576;48.418;10.074;2023-08-21T12:54:22;31.80;65.30
1175;DHT22;576;48.418;10.074;2023-08-21T12:56:50;31.80;65.30
1175;DHT22;576;48.418;10.074;2023-08-21T12:59:20;31.90;65.20
1175;DHT22;576;48.418;10.074;2023-08-21T13:01:49;31.90;65.20
1175;DHT22;576;48.418;10.074;2023-08-21T13:04:17;31.90;65.20
1175;DHT22;576;48.418;10.074;2023-08-21T13:06:45;31.90;65.20
1175;DHT22;576;48.418;10.074;2023-08-21T13:09:15;31.90;65.30
1175;DHT22;576;48.418;10.074;2023-08-21T13:11:43;31.90;65.30
1175;DHT22;576;48.418;10.074;2023-08-21T13:14:11;31.80;65.40
1175;DHT22;576;48.418;10.074;2023-08-21T13:16:39;31.80;65.40
1175;DHT22;576;48.418;10.074;2023-08-21T13:19:07;31.80;65.40
1175;DHT22;576;48.418;10.074;2023-08-21T13:21:36;31.80;65.60
1175;DHT22;576;48.418;10.074;2023-08-21T13:24:04;31.70;65.60
1175;DHT22;576;48.418;10.074;2023-08-21T13:26:33;31.70;65.70
1175;DHT22;576;48.418;10.074;2023-08-21T13:29:02;31.70;65.80
1175;DHT22;576;48.418;10.074;2023-08-21T13:31:30;31.70;65.90
1175;DHT22;576;48.418;10.074;2023-08-21T13:33:58;31.60;66.00
1175;DHT22;576;48.418;10.074;2023-08-21T13:36:27;31.60;66.00
1175;DHT22;576;48.418;10.074;2023-08-21T13:38:56;31.60;66.10
1175;DHT22;576;48.418;10.074;2023-08-21T13:41:24;31.60;66.10
1175;DHT22;576;48.418;10.074;2023-08-21T13:43:54;31.60;66.20
1175;DHT22;576;48.418;10.074;2023-08-21T13:46:26;31.60;66.20
1175;DHT22;576;48.418;10.074;2023-08-21T13:48:54;31.60;66.20
1175;DHT22;576;48.418;10.074;2023-08-21T13:51:22;31.50;66.10
1175;DHT22;576;48.418;10.074;2023-08-21T13:53:50;31.50;66.20
1175;DHT22;576;48.418;10.074;2023-08-21T13:56:18;31.50;66.30
1175;DHT22;576;48.418;10.074;2023-08-21T13:58:46;31.40;66.50
1175;DHT22;576;48.418;10.074;2023-08-21T14:01:16;31.40;66.60
1175;DHT22;576;48.418;10.074;2023-08-21T14:03:44;31.40;66.60
1175;DHT22;576;48.418;10.074;2023-08-21T14:06:12;31.40;66.50
1175;DHT22;576;48.418;10.074;2023-08-21T14:08:41;31.40;66.60
1175;DHT22;576;48.418;10.074;2023-08-21T14:11:09;31.50;66.50
1175;DHT22;576;48.418;10.074;2023-08-21T14:13:38;31.50;66.50
1175;DHT22;576;48.418;10.074;2023-08-21T14:16:06;31.50;66.50
1175;DHT22;576;48.418;10.074;2023-08-21T14:18:35;31.60;66.40
1175;DHT22;576;48.418;10.074;2023-08-21T14:21:03;31.60;66.30
1175;DHT22;576;48.418;10.074;2023-08-21T14:23:32;31.60;66.30
1175;DHT22;576;48.418;10.074;2023-08-21T14:26:00;31.60;66.30
1175;DHT22;576;48.418;10.074;2023-08-21T14:28:29;31.50;66.40
1175;DHT22;576;48.418;10.074;2023-08-21T14:30:57;31.50;66.50
1175;DHT22;576;48.418;10.074;2023-08-21T14:33:26;31.50;66.50
1175;DHT22;576;48.418;10.074;2023-08-21T14:35:56;31.40;66.60
1175;DHT22;576;48.418;10.074;2023-08-21T14:38:24;31.40;66.70
1175;DHT22;576;48.418;10.074;2023-08-21T14:40:53;31.40;66.70
1175;DHT22;576;48.418;10.074;2023-08-21T14:43:21;31.30;66.80
1175;DHT22;576;48.418;10.074;2023-08-21T14:45:49;31.30;66.90
1175;DHT22;576;48.418;10.074;2023-08-21T14:48:17;31.20;67.10
1175;DHT22;576;48.418;10.074;2023-08-21T14:50:46;31.20;67.10
1175;DHT22;576;48.418;10.074;2023-08-21T14:53:15;31.20;67.20
1175;DHT22;576;48.418;10.074;2023-08-21T14:55:44;31.10;67.20
1175;DHT22;576;48.418;10.074;2023-08-21T14:58:12;31.10;67.30
1175;DHT22;576;48.418;10.074;2023-08-21T15:00:40;31.10;67.40
1175;DHT22;576;48.418;10.074;2023-08-21T15:03:08;31.00;67.40
1175;DHT22;576;48.418;10.074;2023-08-21T15:05:37;31.00;67.60
1175;DHT22;576;48.418;10.074;2023-08-21T15:08:05;31.00;67.60
1175;DHT22;576;48.418;10.074;2023-08-21T15:10:34;31.00;67.70
1175;DHT22;576;48.418;10.074;2023-08-21T15:13:03;31.00;67.70
1175;DHT22;576;48.418;10.074;2023-08-21T15:15:31;31.00;67.70
1175;DHT22;576;48.418;10.074;2023-08-21T15:17:59;31.00;67.70
1175;DHT22;576;48.418;10.074;2023-08-21T15:20:28;31.00;67.70
1175;DHT22;576;48.418;10.074;2023-08-21T15:22:56;31.00;67.80
1175;DHT22;576;48.418;10.074;2023-08-21T15:25:24;30.90;67.80
1175;DHT22;576;48.418;10.074;2023-08-21T15:27:53;31.00;67.80
1175;DHT22;576;48.418;10.074;2023-08-21T15:30:22;31.00;67.70
1175;DHT22;576;48.418;10.074;2023-08-21T15:32:50;31.00;67.80
1175;DHT22;576;48.418;10.074;2023-08-21T15:35:19;31.00;67.80
1175;DHT22;576;48.418;10.074;2023-08-21T15:37:47;30.90;67.80
1175;DHT22;576;48.418;10.074;2023-08-21T15:40:16;30.90;67.90
1175;DHT22;576;48.418;10.074;2023-08-21T15:42:44;30.90;67.90
1175;DHT22;576;48.418;10.074;2023-08-21T15:45:13;30.90;67.90
1175;DHT22;576;48.418;10.074;2023-08-21T15:47:42;30.90;68.00
1175;DHT22;576;48.418;10.074;2023-08-21T15:50:15;30.90;68.00
1175;DHT22;576;48.418;10.074;2023-08-21T15:52:46;30.90;68.00
1175;DHT22;576;48.418;10.074;2023-08-21T15:55:15;30.90;68.00
1175;DHT22;576;48.418;10.074;2023-08-21T15:57:44;30.90;67.90
1175;DHT22;576;48.418;10.074;2023-08-21T16:00:14;31.00;67.90
1175;DHT22;576;48.418;10.074;2023-08-21T16:02:42;31.00;67.80
1175;DHT22;576;48.418;10.074;2023-08-21T16:05:11;31.10;67.70
1175;DHT22;576;48.418;10.074;2023-08-21T16:07:39;31.10;67.60
1175;DHT22;576;48.418;10.074;2023-08-21T16:10:08;31.20;67.50
1175;DHT22;576;48.418;10.074;2023-08-21T16:12:36;31.20;67.30
1175;DHT22;576;48.418;10.074;2023-08-21T16:15:06;31.30;67.30